createdAt,value
2023-04-13T00:00:28.819Z,0.20
2023-04-13T00:01:28.802Z,0.30
2023-04-13T00:02:28.951Z,0.20
2023-04-13T00:03:29.017Z,0.30
2023-04-13T00:04:28.778Z,0.30
2023-04-13T00:05:28.790Z,0.20
2023-04-13T00:06:28.763Z,0.20
2023-04-13T00:07:28.747Z,0.10
2023-04-13T00:08:28.729Z,0.20
2023-04-13T00:09:28.728Z,0.30
2023-04-13T00:10:28.709Z,0.20
2023-04-13T00:11:28.717Z,0.10
2023-04-13T00:12:28.715Z,0.20
2023-04-13T00:13:28.676Z,0.20
2023-04-13T00:14:28.668Z,0.20
2023-04-13T00:15:28.665Z,0.10
2023-04-13T00:16:28.693Z,0.10
2023-04-13T00:17:28.661Z,0.30
2023-04-13T00:18:28.624Z,0.20
2023-04-13T00:19:28.613Z,0.10
2023-04-13T00:20:28.608Z,0.20
2023-04-13T00:21:28.594Z,0.20
2023-04-13T00:22:28.576Z,0.20
2023-04-13T00:23:28.581Z,0.20
2023-04-13T00:24:28.556Z,0.20
2023-04-13T00:25:28.541Z,0.30
2023-04-13T00:26:28.547Z,0.10
2023-04-13T00:27:28.529Z,0.20
2023-04-13T00:28:28.549Z,0.30
2023-04-13T00:29:28.519Z,0.20
2023-04-13T00:30:28.497Z,0.20
2023-04-13T00:31:28.549Z,0.20
2023-04-13T00:32:28.471Z,0.20
2023-04-13T00:33:28.461Z,0.20
2023-04-13T00:34:28.448Z,0.40
2023-04-13T00:35:28.466Z,0.30
2023-04-13T00:36:28.428Z,0.20
2023-04-13T00:37:28.429Z,0.30
2023-04-13T00:38:28.411Z,0.30
2023-04-13T00:39:28.392Z,0.20
2023-04-13T00:40:28.383Z,0.60
2023-04-13T00:41:28.405Z,0.30
2023-04-13T00:42:28.368Z,0.40
2023-04-13T00:43:28.349Z,0.20
2023-04-13T00:44:28.382Z,0.50
2023-04-13T00:45:28.358Z,0.30
2023-04-13T00:46:28.387Z,0.10
2023-04-13T00:47:28.385Z,0.10
2023-04-13T00:48:28.300Z,0.80
2023-04-13T00:49:28.285Z,0.30
2023-04-13T00:50:28.308Z,0.50
2023-04-13T00:51:28.270Z,1.40
2023-04-13T00:52:28.256Z,0.20
2023-04-13T00:53:28.276Z,0.20
2023-04-13T00:54:28.245Z,0.20
2023-04-13T00:55:28.223Z,0.20
2023-04-13T00:56:28.228Z,0.20
2023-04-13T00:57:28.204Z,0.30
2023-04-13T00:58:28.194Z,0.20
2023-04-13T00:59:28.204Z,0.20
2023-04-13T01:00:28.294Z,0.30
2023-04-13T01:01:28.184Z,0.50
2023-04-13T01:02:28.218Z,0.60
2023-04-13T01:03:28.156Z,0.50
2023-04-13T01:04:28.198Z,0.60
2023-04-13T01:05:28.153Z,0.10
2023-04-13T01:06:28.136Z,0.30
2023-04-13T01:07:28.093Z,0.40
2023-04-13T01:08:28.091Z,0.20
2023-04-13T01:09:28.083Z,0.20
2023-04-13T01:10:28.072Z,0.30
2023-04-13T01:11:28.085Z,0.30
2023-04-13T01:12:28.053Z,0.30
2023-04-13T01:13:28.042Z,0.40
2023-04-13T01:14:28.022Z,0.40
2023-04-13T01:15:28.009Z,0.40
2023-04-13T01:16:28.182Z,0.50
2023-04-13T01:17:28.034Z,0.60
2023-04-13T01:18:27.990Z,0.40
2023-04-13T01:19:27.966Z,0.30
2023-04-13T01:20:27.957Z,0.70
2023-04-13T01:21:27.946Z,1.10
2023-04-13T01:22:27.938Z,0.60
2023-04-13T01:23:27.963Z,0.40
2023-04-13T01:24:27.918Z,0.30
2023-04-13T01:25:27.905Z,0.30
2023-04-13T01:26:27.893Z,0.40
2023-04-13T01:27:27.885Z,0.20
2023-04-13T01:28:27.884Z,0.10
2023-04-13T01:29:27.920Z,0.20
2023-04-13T01:30:27.850Z,0.20
2023-04-13T01:31:27.861Z,1.10
2023-04-13T01:32:27.888Z,0.40
2023-04-13T01:33:27.815Z,1.40
2023-04-13T01:34:27.809Z,2.80
2023-04-13T01:35:27.842Z,1.90
2023-04-13T01:36:27.786Z,0.90
2023-04-13T01:37:27.777Z,0.60
2023-04-13T01:38:27.780Z,0.90
2023-04-13T01:39:27.754Z,0.90
2023-04-13T01:40:27.750Z,0.60
2023-04-13T01:41:27.751Z,0.30
2023-04-13T01:42:27.736Z,0.30
2023-04-13T01:43:27.715Z,0.20
2023-04-13T01:44:27.703Z,0.40
2023-04-13T01:45:27.710Z,0.40
2023-04-13T01:46:27.722Z,0.40
2023-04-13T01:47:27.761Z,0.30
2023-04-13T01:48:27.681Z,0.20
2023-04-13T01:49:27.647Z,0.30
2023-04-13T01:50:27.637Z,0.50
2023-04-13T01:51:27.634Z,0.30
2023-04-13T01:52:27.617Z,0.20
2023-04-13T01:53:27.631Z,0.30
2023-04-13T01:54:27.600Z,0.40
2023-04-13T01:55:27.581Z,0.40
2023-04-13T01:56:27.578Z,0.40
2023-04-13T01:57:27.570Z,0.40
2023-04-13T01:58:27.556Z,0.30
2023-04-13T01:59:27.564Z,0.30
2023-04-13T02:00:27.545Z,0.30
2023-04-13T02:01:27.534Z,0.50
2023-04-13T02:02:27.625Z,0.30
2023-04-13T02:03:27.614Z,0.20
2023-04-13T02:04:27.523Z,0.20
2023-04-13T02:05:27.493Z,0.50
2023-04-13T02:06:27.470Z,0.40
2023-04-13T02:07:27.455Z,0.30
2023-04-13T02:08:27.460Z,0.30
2023-04-13T02:09:27.434Z,0.30
2023-04-13T02:10:27.428Z,0.20
2023-04-13T02:11:27.445Z,0.20
2023-04-13T02:12:27.407Z,0.30
2023-04-13T02:13:27.411Z,0.20
2023-04-13T02:14:27.389Z,0.30
2023-04-13T02:15:27.368Z,0.20
2023-04-13T02:16:27.394Z,0.30
2023-04-13T02:17:27.437Z,0.30
2023-04-13T02:18:27.348Z,0.20
2023-04-13T02:19:27.338Z,0.30
2023-04-13T02:20:27.337Z,0.20
2023-04-13T02:21:27.312Z,0.20
2023-04-13T02:22:27.315Z,0.10
2023-04-13T02:23:27.315Z,0.20
2023-04-13T02:24:27.279Z,0.20
2023-04-13T02:25:27.264Z,0.10
2023-04-13T02:26:27.262Z,0.10
2023-04-13T02:27:27.242Z,0.20
2023-04-13T02:28:27.243Z,0.10
2023-04-13T02:29:27.254Z,0.20
2023-04-13T02:30:27.212Z,0.10
2023-04-13T02:31:27.237Z,0.10
2023-04-13T02:32:27.228Z,0.20
2023-04-13T02:33:27.178Z,0.10
2023-04-13T02:34:27.180Z,0.10
2023-04-13T02:35:27.179Z,0.20
2023-04-13T02:36:27.172Z,0.20
2023-04-13T02:37:27.135Z,0.10
2023-04-13T02:38:27.128Z,0.20
2023-04-13T02:39:27.124Z,0.20
2023-04-13T02:40:27.122Z,0.10
2023-04-13T02:41:27.124Z,0.10
2023-04-13T02:42:27.086Z,0.10
2023-04-13T02:43:27.081Z,0.10
2023-04-13T02:44:27.063Z,0.10
2023-04-13T02:45:27.112Z,0.10
2023-04-13T02:46:27.069Z,0.10
2023-04-13T02:47:27.087Z,0.10
2023-04-13T02:48:27.024Z,0.10
2023-04-13T02:49:27.013Z,0.20
2023-04-13T02:50:27.000Z,0.10
2023-04-13T02:51:26.986Z,0.10
2023-04-13T02:52:27.013Z,0.10
2023-04-13T02:53:26.981Z,0.20
2023-04-13T02:54:26.955Z,0.10
2023-04-13T02:55:26.952Z,0.10
2023-04-13T02:56:26.932Z,0.10
2023-04-13T02:57:26.937Z,0.10
2023-04-13T02:58:26.912Z,0.10
2023-04-13T02:59:26.930Z,0.10
2023-04-13T03:00:26.900Z,0.10
2023-04-13T03:01:26.989Z,0.10
2023-04-13T03:02:26.940Z,0.20
2023-04-13T03:03:26.911Z,0.10
2023-04-13T03:04:26.866Z,0.20
2023-04-13T03:05:26.857Z,0.20
2023-04-13T03:06:26.842Z,0.10
2023-04-13T03:07:26.845Z,0.10
2023-04-13T03:08:26.822Z,0.10
2023-04-13T03:09:26.788Z,0.10
2023-04-13T03:10:26.788Z,0.10
2023-04-13T03:11:26.820Z,0.10
2023-04-13T03:12:26.767Z,0.10
2023-04-13T03:13:26.746Z,0.10
2023-04-13T03:14:26.744Z,0.10
2023-04-13T03:15:26.732Z,0.10
2023-04-13T03:16:26.727Z,0.10
2023-04-13T03:17:26.740Z,0.10
2023-04-13T03:18:26.697Z,0.10
2023-04-13T03:19:26.690Z,0.20
2023-04-13T03:20:26.674Z,0.20
2023-04-13T03:21:26.666Z,0.20
2023-04-13T03:22:26.658Z,0.20
2023-04-13T03:23:26.671Z,0.30
2023-04-13T03:24:26.654Z,0.20
2023-04-13T03:25:26.634Z,0.20
2023-04-13T03:26:26.626Z,0.20
2023-04-13T03:27:26.610Z,0.20
2023-04-13T03:28:26.631Z,0.10
2023-04-13T03:29:26.613Z,0.10
2023-04-13T03:30:26.603Z,0.10
2023-04-13T03:31:26.628Z,0.20
2023-04-13T03:32:26.630Z,0.20
2023-04-13T03:33:26.534Z,0.20
2023-04-13T03:34:26.528Z,0.20
2023-04-13T03:35:26.553Z,0.20
2023-04-13T03:36:26.505Z,0.20
2023-04-13T03:37:26.503Z,0.10
2023-04-13T03:38:26.486Z,0.20
2023-04-13T03:39:26.475Z,0.10
2023-04-13T03:40:26.486Z,0.20
2023-04-13T03:41:26.491Z,0.20
2023-04-13T03:42:26.441Z,0.20
2023-04-13T03:43:26.441Z,0.20
2023-04-13T03:44:26.424Z,0.20
2023-04-13T03:45:26.410Z,0.20
2023-04-13T03:46:26.444Z,0.20
2023-04-13T03:47:26.424Z,0.30
2023-04-13T03:48:26.428Z,0.30
2023-04-13T03:49:26.365Z,0.20
2023-04-13T03:50:26.358Z,0.40
2023-04-13T03:51:26.353Z,0.10
2023-04-13T03:52:26.337Z,0.20
2023-04-13T03:53:26.354Z,0.50
2023-04-13T03:54:26.333Z,0.90
2023-04-13T03:55:26.302Z,0.60
2023-04-13T03:56:26.313Z,2.00
2023-04-13T03:57:26.285Z,1.70
2023-04-13T03:58:26.272Z,0.80
2023-04-13T03:59:26.291Z,1.00
2023-04-13T04:00:26.266Z,1.40
2023-04-13T04:01:26.234Z,0.90
2023-04-13T04:02:26.352Z,1.10
2023-04-13T04:03:26.284Z,1.30
2023-04-13T04:04:26.294Z,1.20
2023-04-13T04:05:26.244Z,0.80
2023-04-13T04:06:26.184Z,0.80
2023-04-13T04:07:26.180Z,0.80
2023-04-13T04:08:26.163Z,0.80
2023-04-13T04:09:26.155Z,0.20
2023-04-13T04:10:26.151Z,0.20
2023-04-13T04:11:26.169Z,0.20
2023-04-13T04:12:26.134Z,0.30
2023-04-13T04:13:26.108Z,0.10
2023-04-13T04:14:26.137Z,0.20
2023-04-13T04:15:26.104Z,0.10
2023-04-13T04:16:26.112Z,0.10
2023-04-13T04:17:26.208Z,0.20
2023-04-13T04:18:26.057Z,0.20
2023-04-13T04:19:26.042Z,0.20
2023-04-13T04:20:26.031Z,0.20
2023-04-13T04:21:26.022Z,0.30
2023-04-13T04:22:26.061Z,0.10
2023-04-13T04:23:26.001Z,0.20
2023-04-13T04:24:26.007Z,0.40
2023-04-13T04:25:25.979Z,0.50
2023-04-13T04:26:26.084Z,0.10
2023-04-13T04:27:25.960Z,0.20
2023-04-13T04:28:25.979Z,0.40
2023-04-13T04:29:25.936Z,1.50
2023-04-13T04:30:25.934Z,0.20
2023-04-13T04:31:25.945Z,0.70
2023-04-13T04:32:25.938Z,0.30
2023-04-13T04:33:25.909Z,0.30
2023-04-13T04:34:25.897Z,0.20
2023-04-13T04:35:25.885Z,0.30
2023-04-13T04:36:25.874Z,0.40
2023-04-13T04:37:25.889Z,0.30
2023-04-13T04:38:25.842Z,0.10
2023-04-13T04:39:25.829Z,0.30
2023-04-13T04:40:25.873Z,0.20
2023-04-13T04:41:25.808Z,0.20
2023-04-13T04:42:25.823Z,0.20
2023-04-13T04:43:25.790Z,0.40
2023-04-13T04:44:25.796Z,0.10
2023-04-13T04:45:25.787Z,0.70
2023-04-13T04:46:25.986Z,0.40
2023-04-13T04:47:25.794Z,0.20
2023-04-13T04:48:25.755Z,0.30
2023-04-13T04:49:25.731Z,0.10
2023-04-13T04:50:25.706Z,0.10
2023-04-13T04:51:25.700Z,0.20
2023-04-13T04:52:25.707Z,0.20
2023-04-13T04:53:25.678Z,0.20
2023-04-13T04:54:25.697Z,0.20
2023-04-13T04:55:25.657Z,0.20
2023-04-13T04:56:25.642Z,0.50
2023-04-13T04:57:26.567Z,0.20
2023-04-13T04:58:25.640Z,0.40
2023-04-13T04:59:25.622Z,0.30
2023-04-13T05:00:25.631Z,0.30
2023-04-13T05:01:25.635Z,0.40
2023-04-13T05:02:25.699Z,0.40
2023-04-13T05:03:25.615Z,0.30
2023-04-13T05:04:25.594Z,0.20
2023-04-13T05:05:25.612Z,0.20
2023-04-13T05:06:25.548Z,0.30
2023-04-13T05:07:25.531Z,0.90
2023-04-13T05:08:25.516Z,0.70
2023-04-13T05:09:25.509Z,0.30
2023-04-13T05:10:25.518Z,0.80
2023-04-13T05:11:25.498Z,0.50
2023-04-13T05:12:25.490Z,0.20
2023-04-13T05:13:25.465Z,0.30
2023-04-13T05:14:25.468Z,0.20
2023-04-13T05:15:25.453Z,0.30
2023-04-13T05:16:25.503Z,0.30
2023-04-13T05:17:25.456Z,0.30
2023-04-13T05:18:25.423Z,0.20
2023-04-13T05:19:25.405Z,0.20
2023-04-13T05:20:25.396Z,0.20
2023-04-13T05:21:25.384Z,0.20
2023-04-13T05:22:25.400Z,0.20
2023-04-13T05:23:25.359Z,0.40
2023-04-13T05:24:25.371Z,0.20
2023-04-13T05:25:25.340Z,0.40
2023-04-13T05:26:25.481Z,0.20
2023-04-13T05:27:25.316Z,0.20
2023-04-13T05:28:25.336Z,0.30
2023-04-13T05:29:25.311Z,0.20
2023-04-13T05:30:25.295Z,0.20
2023-04-13T05:31:25.345Z,0.30
2023-04-13T05:32:25.318Z,0.30
2023-04-13T05:33:25.264Z,0.30
2023-04-13T05:34:25.269Z,0.20
2023-04-13T05:35:25.237Z,0.30
2023-04-13T05:36:25.248Z,0.40
2023-04-13T05:37:25.214Z,0.30
2023-04-13T05:38:25.194Z,0.50
2023-04-13T05:39:25.187Z,0.40
2023-04-13T05:40:25.202Z,0.30
2023-04-13T05:41:25.166Z,0.40
2023-04-13T05:42:25.191Z,0.30
2023-04-13T05:43:25.169Z,0.30
2023-04-13T05:44:25.140Z,0.50
2023-04-13T05:45:25.128Z,0.40
2023-04-13T05:46:25.236Z,0.50
2023-04-13T05:47:25.121Z,0.40
2023-04-13T05:48:25.116Z,0.40
2023-04-13T05:49:25.077Z,0.90
2023-04-13T05:50:25.065Z,0.90
2023-04-13T05:51:25.056Z,0.90
2023-04-13T05:52:25.068Z,0.70
2023-04-13T05:53:25.044Z,0.60
2023-04-13T05:54:25.019Z,0.80
2023-04-13T05:55:25.012Z,0.40
2023-04-13T05:56:24.998Z,0.70
2023-04-13T05:57:24.998Z,1.30
2023-04-13T05:58:25.033Z,0.90
2023-04-13T05:59:24.972Z,1.20
2023-04-13T06:00:24.955Z,0.90
2023-04-13T06:01:24.947Z,1.00
2023-04-13T06:02:25.038Z,1.20
2023-04-13T06:03:25.104Z,0.90
2023-04-13T06:04:25.200Z,0.60
2023-04-13T06:05:25.135Z,0.70
2023-04-13T06:06:24.899Z,1.00
2023-04-13T06:07:24.885Z,0.50
2023-04-13T06:08:24.870Z,0.60
2023-04-13T06:09:24.870Z,0.90
2023-04-13T06:10:24.904Z,0.80
2023-04-13T06:11:24.844Z,0.70
2023-04-13T06:12:24.834Z,1.10
2023-04-13T06:13:24.819Z,1.60
2023-04-13T06:14:24.825Z,1.10
2023-04-13T06:15:24.797Z,0.90
2023-04-13T06:16:24.880Z,0.80
2023-04-13T06:17:24.855Z,0.80
2023-04-13T06:18:24.767Z,0.60
2023-04-13T06:19:26.314Z,0.40
2023-04-13T06:20:24.756Z,0.50
2023-04-13T06:21:24.735Z,0.50
2023-04-13T06:22:24.750Z,0.50
2023-04-13T06:23:24.726Z,0.50
2023-04-13T06:24:24.705Z,0.30
2023-04-13T06:25:24.693Z,0.30
2023-04-13T06:26:24.680Z,0.40
2023-04-13T06:27:24.674Z,0.40
2023-04-13T06:28:24.699Z,1.50
2023-04-13T06:29:24.668Z,1.70
2023-04-13T06:30:24.641Z,1.80
2023-04-13T06:31:24.661Z,0.70
2023-04-13T06:32:24.629Z,0.60
2023-04-13T06:33:24.623Z,0.40
2023-04-13T06:34:24.645Z,0.40
2023-04-13T06:35:24.590Z,0.30
2023-04-13T06:36:24.599Z,0.50
2023-04-13T06:37:24.568Z,0.40
2023-04-13T06:38:24.553Z,0.30
2023-04-13T06:39:26.012Z,0.30
2023-04-13T06:40:24.583Z,0.60
2023-04-13T06:41:24.525Z,0.30
2023-04-13T06:42:24.513Z,0.50
2023-04-13T06:43:29.502Z,0.50
2023-04-13T06:44:25.489Z,0.50
2023-04-13T06:45:24.484Z,0.70
2023-04-13T06:46:24.551Z,0.50
2023-04-13T06:47:24.492Z,0.50
2023-04-13T06:48:24.446Z,0.60
2023-04-13T06:49:24.453Z,0.60
2023-04-13T06:50:24.426Z,0.60
2023-04-13T06:51:24.430Z,0.50
2023-04-13T06:52:24.446Z,0.40
2023-04-13T06:53:24.403Z,0.40
2023-04-13T06:54:24.384Z,0.50
2023-04-13T06:55:24.388Z,0.30
2023-04-13T06:56:24.372Z,0.40
2023-04-13T06:57:24.354Z,0.40
2023-04-13T06:58:24.377Z,0.50
2023-04-13T06:59:24.329Z,0.30
2023-04-13T07:00:30.171Z,0.40
2023-04-13T07:01:25.397Z,0.30
2023-04-13T07:02:24.443Z,0.30
2023-04-13T07:03:24.454Z,0.40
2023-04-13T07:04:27.441Z,0.40
2023-04-13T07:05:24.277Z,0.40
2023-04-13T07:06:24.251Z,0.40
2023-04-13T07:07:24.261Z,0.30
2023-04-13T07:08:24.259Z,0.40
2023-04-13T07:09:24.233Z,0.30
2023-04-13T07:10:24.237Z,0.60
2023-04-13T07:11:24.202Z,0.30
2023-04-13T07:12:24.197Z,0.30
2023-04-13T07:13:24.181Z,0.30
2023-04-13T07:14:24.174Z,0.40
2023-04-13T07:15:24.156Z,0.30
2023-04-13T07:16:24.257Z,0.40
2023-04-13T07:17:24.211Z,0.30
2023-04-13T07:18:24.125Z,0.50
2023-04-13T07:19:24.112Z,0.30
2023-04-13T07:20:24.097Z,0.50
2023-04-13T07:21:24.092Z,0.40
2023-04-13T07:22:24.105Z,0.30
2023-04-13T07:23:24.076Z,0.30
2023-04-13T07:24:24.092Z,0.40
2023-04-13T07:25:24.054Z,0.50
2023-04-13T07:26:24.038Z,0.50
2023-04-13T07:27:24.029Z,0.60
2023-04-13T07:28:24.064Z,0.60
2023-04-13T07:29:24.017Z,0.50
2023-04-13T07:30:23.996Z,0.60
2023-04-13T07:31:24.039Z,0.50
2023-04-13T07:32:28.082Z,0.50
2023-04-13T07:33:24.978Z,0.40
2023-04-13T07:34:23.984Z,0.40
2023-04-13T07:35:23.949Z,0.60
2023-04-13T07:36:23.935Z,0.50
2023-04-13T07:37:23.922Z,0.30
2023-04-13T07:38:23.908Z,0.50
2023-04-13T07:39:23.906Z,0.40
2023-04-13T07:40:23.915Z,0.50
2023-04-13T07:41:23.901Z,0.30
2023-04-13T07:42:23.861Z,0.30
2023-04-13T07:43:23.854Z,0.40
2023-04-13T07:44:23.843Z,0.40
2023-04-13T07:45:23.832Z,0.60
2023-04-13T07:46:23.900Z,0.60
2023-04-13T07:47:23.855Z,0.40
2023-04-13T07:48:23.801Z,0.40
2023-04-13T07:49:23.790Z,0.30
2023-04-13T07:50:23.825Z,0.40
2023-04-13T07:51:23.777Z,0.30
2023-04-13T07:52:23.786Z,0.30
2023-04-13T07:53:23.787Z,0.30
2023-04-13T07:54:23.735Z,0.50
2023-04-13T07:55:23.728Z,0.40
2023-04-13T07:56:23.744Z,0.30
2023-04-13T07:57:23.707Z,0.40
2023-04-13T07:58:23.723Z,0.50
2023-04-13T07:59:25.276Z,0.50
2023-04-13T08:00:23.673Z,0.30
2023-04-13T08:01:23.670Z,0.30
2023-04-13T08:02:23.715Z,0.30
2023-04-13T08:03:23.784Z,0.20
2023-04-13T08:04:23.922Z,0.30
2023-04-13T08:05:23.801Z,0.30
2023-04-13T08:06:23.615Z,0.40
2023-04-13T08:07:23.596Z,0.50
2023-04-13T08:08:23.584Z,0.30
2023-04-13T08:09:23.576Z,0.50
2023-04-13T08:10:23.644Z,0.30
2023-04-13T08:11:23.556Z,0.20
2023-04-13T08:12:23.579Z,0.60
2023-04-13T08:13:23.536Z,0.40
2023-04-13T08:14:23.522Z,0.30
2023-04-13T08:15:23.527Z,0.30
2023-04-13T08:16:23.563Z,0.50
2023-04-13T08:17:23.516Z,0.40
2023-04-13T08:18:23.491Z,0.40
2023-04-13T08:19:23.470Z,0.30
2023-04-13T08:20:23.475Z,0.30
2023-04-13T08:21:23.459Z,0.40
2023-04-13T08:22:23.464Z,0.20
2023-04-13T08:23:23.437Z,0.30
2023-04-13T08:24:23.427Z,0.30
2023-04-13T08:25:23.414Z,0.30
2023-04-13T08:26:23.402Z,0.20
2023-04-13T08:27:23.389Z,0.20
2023-04-13T08:28:23.681Z,0.30
2023-04-13T08:29:23.368Z,0.30
2023-04-13T08:30:23.354Z,0.30
2023-04-13T08:31:23.364Z,0.40
2023-04-13T08:32:23.360Z,0.40
2023-04-13T08:33:23.328Z,0.30
2023-04-13T08:34:23.351Z,0.20
2023-04-13T08:35:23.307Z,0.40
2023-04-13T08:36:23.291Z,0.30
2023-04-13T08:37:23.286Z,0.30
2023-04-13T08:38:23.283Z,0.30
2023-04-13T08:39:23.273Z,0.40
2023-04-13T08:40:23.284Z,0.40
2023-04-13T08:41:23.241Z,0.20
2023-04-13T08:42:23.694Z,0.40
2023-04-13T08:43:23.234Z,0.30
2023-04-13T08:44:23.234Z,0.30
2023-04-13T08:45:23.199Z,0.20
2023-04-13T08:46:23.377Z,0.30
2023-04-13T08:47:23.178Z,0.30
2023-04-13T08:48:23.185Z,0.30
2023-04-13T08:49:23.164Z,0.40
2023-04-13T08:50:23.263Z,0.30
2023-04-13T08:51:23.138Z,0.50
2023-04-13T08:52:23.142Z,0.30
2023-04-13T08:53:23.109Z,0.30
2023-04-13T08:54:23.105Z,0.30
2023-04-13T08:55:23.090Z,0.40
2023-04-13T08:56:30.933Z,0.30
2023-04-13T08:57:24.119Z,0.30
2023-04-13T08:58:23.119Z,0.30
2023-04-13T08:59:23.049Z,0.40
2023-04-13T09:00:23.074Z,0.40
2023-04-13T09:01:23.054Z,0.30
2023-04-13T09:02:23.185Z,0.30
2023-04-13T09:03:23.171Z,0.30
2023-04-13T09:04:23.051Z,0.30
2023-04-13T09:05:23.161Z,0.40
2023-04-13T09:06:22.982Z,0.30
2023-04-13T09:07:22.960Z,0.40
2023-04-13T09:08:22.951Z,0.30
2023-04-13T09:09:22.964Z,0.20
2023-04-13T09:10:22.924Z,0.40
2023-04-13T09:11:22.929Z,0.30
2023-04-13T09:12:22.903Z,0.30
2023-04-13T09:13:22.899Z,0.30
2023-04-13T09:14:22.884Z,0.40
2023-04-13T09:15:22.898Z,0.40
2023-04-13T09:16:22.912Z,0.30
2023-04-13T09:17:22.981Z,0.40
2023-04-13T09:18:22.841Z,0.20
2023-04-13T09:19:22.844Z,0.30
2023-04-13T09:20:22.852Z,0.50
2023-04-13T09:21:22.845Z,0.30
2023-04-13T09:22:22.802Z,0.40
2023-04-13T09:23:22.811Z,0.40
2023-04-13T09:24:22.778Z,0.30
2023-04-13T09:25:22.776Z,0.40
2023-04-13T09:26:22.781Z,0.30
2023-04-13T09:27:22.783Z,0.40
2023-04-13T09:28:22.743Z,0.40
2023-04-13T09:29:22.742Z,0.30
2023-04-13T09:30:22.732Z,0.50
2023-04-13T09:31:22.744Z,0.40
2023-04-13T09:32:22.965Z,0.30
2023-04-13T09:33:22.726Z,0.40
2023-04-13T09:34:22.675Z,0.30
2023-04-13T09:35:22.668Z,0.40
2023-04-13T09:36:22.860Z,0.40
2023-04-13T09:37:22.795Z,0.30
2023-04-13T09:38:22.634Z,0.40
2023-04-13T09:39:22.657Z,0.30
2023-04-13T09:40:22.619Z,0.30
2023-04-13T09:41:22.606Z,0.40
2023-04-13T09:42:22.601Z,0.40
2023-04-13T09:43:22.610Z,0.30
2023-04-13T09:44:22.572Z,0.40
2023-04-13T09:45:22.589Z,0.30
2023-04-13T09:46:22.563Z,0.50
2023-04-13T09:47:22.694Z,0.40
2023-04-13T09:48:22.737Z,0.40
2023-04-13T09:49:22.520Z,0.30
2023-04-13T09:50:22.510Z,0.40
2023-04-13T09:51:22.515Z,0.40
2023-04-13T09:52:22.486Z,0.30
2023-04-13T09:53:22.485Z,0.30
2023-04-13T09:54:22.464Z,0.50
2023-04-13T09:55:22.464Z,0.30
2023-04-13T09:56:22.444Z,0.30
2023-04-13T09:57:22.512Z,0.50
2023-04-13T09:58:24.321Z,0.40
2023-04-13T09:59:22.413Z,0.40
2023-04-13T10:00:22.469Z,0.40
2023-04-13T10:01:22.490Z,0.50
2023-04-13T10:02:22.615Z,0.30
2023-04-13T10:03:22.607Z,0.30
2023-04-13T10:04:22.383Z,0.40
2023-04-13T10:05:22.392Z,0.40
2023-04-13T10:06:22.336Z,0.50
2023-04-13T10:07:22.358Z,0.40
2023-04-13T10:08:34.537Z,0.40
2023-04-13T10:09:23.328Z,0.40
2023-04-13T10:10:22.300Z,0.30
2023-04-13T10:11:22.290Z,0.30
2023-04-13T10:12:22.272Z,0.50
2023-04-13T10:13:24.103Z,0.40
2023-04-13T10:14:22.247Z,0.50
2023-04-13T10:15:22.353Z,0.40
2023-04-13T10:16:22.300Z,0.40
2023-04-13T10:17:22.355Z,0.40
2023-04-13T10:18:22.372Z,0.40
2023-04-13T10:19:22.208Z,0.40
2023-04-13T10:20:22.226Z,0.30
2023-04-13T10:21:22.198Z,0.30
2023-04-13T10:22:22.168Z,0.40
2023-04-13T10:23:22.159Z,0.40
2023-04-13T10:24:22.142Z,0.40
2023-04-13T10:25:33.128Z,0.40
2023-04-13T10:26:23.119Z,0.40
2023-04-13T10:27:22.331Z,0.30
2023-04-13T10:28:22.931Z,0.30
2023-04-13T10:29:22.086Z,0.40
2023-04-13T10:30:22.095Z,0.30
2023-04-13T10:31:22.131Z,0.30
2023-04-13T10:32:22.108Z,0.20
2023-04-13T10:33:22.075Z,0.40
2023-04-13T10:34:22.032Z,0.40
2023-04-13T10:35:22.024Z,0.30
2023-04-13T10:36:22.041Z,0.30
2023-04-13T10:37:22.042Z,0.30
2023-04-13T10:38:21.996Z,0.30
2023-04-13T10:39:21.995Z,0.40
2023-04-13T10:40:21.985Z,0.40
2023-04-13T10:41:21.959Z,0.40
2023-04-13T10:42:21.947Z,0.20
2023-04-13T10:43:21.937Z,0.20
2023-04-13T10:44:21.923Z,0.30
2023-04-13T10:45:21.960Z,0.40
2023-04-13T10:46:21.953Z,0.30
2023-04-13T10:47:21.973Z,0.40
2023-04-13T10:48:21.914Z,0.50
2023-04-13T10:49:21.873Z,0.30
2023-04-13T10:50:21.857Z,0.50
2023-04-13T10:51:21.883Z,0.40
2023-04-13T10:52:21.864Z,0.50
2023-04-13T10:53:21.835Z,0.40
2023-04-13T10:54:21.816Z,0.40
2023-04-13T10:55:21.811Z,0.40
2023-04-13T10:56:21.794Z,0.30
2023-04-13T10:57:21.972Z,0.30
2023-04-13T10:58:21.774Z,0.40
2023-04-13T10:59:21.775Z,0.50
2023-04-13T11:00:25.543Z,0.30
2023-04-13T11:01:22.766Z,0.40
2023-04-13T11:02:21.826Z,0.50
2023-04-13T11:03:21.859Z,0.50
2023-04-13T11:04:21.869Z,0.60
2023-04-13T11:05:21.713Z,0.60
2023-04-13T11:06:21.700Z,0.50
2023-04-13T11:07:21.684Z,0.60
2023-04-13T11:08:21.935Z,0.80
2023-04-13T11:09:21.696Z,0.60
2023-04-13T11:10:21.649Z,0.40
2023-04-13T11:11:21.647Z,0.50
2023-04-13T11:12:21.641Z,0.50
2023-04-13T11:13:21.628Z,0.40
2023-04-13T11:14:21.616Z,0.90
2023-04-13T11:15:21.629Z,0.80
2023-04-13T11:16:21.659Z,0.80
2023-04-13T11:17:21.873Z,0.50
2023-04-13T11:18:21.566Z,0.50
2023-04-13T11:19:21.556Z,2.40
2023-04-13T11:20:21.564Z,3.80
2023-04-13T11:21:21.557Z,1.00
2023-04-13T11:22:21.536Z,0.50
2023-04-13T11:23:21.516Z,0.50
2023-04-13T11:24:21.524Z,0.60
2023-04-13T11:25:21.502Z,0.40
2023-04-13T11:26:21.480Z,0.40
2023-04-13T11:27:21.505Z,0.40
2023-04-13T11:28:21.471Z,0.40
2023-04-13T11:29:21.596Z,0.40
2023-04-13T11:30:21.437Z,0.40
2023-04-13T11:31:21.458Z,0.50
2023-04-13T11:32:21.587Z,0.50
2023-04-13T11:33:21.434Z,0.50
2023-04-13T11:34:21.408Z,0.40
2023-04-13T11:35:21.389Z,0.40
2023-04-13T11:36:21.374Z,0.50
2023-04-13T11:37:21.368Z,0.60
2023-04-13T11:38:21.365Z,0.40
2023-04-13T11:39:21.363Z,0.50
2023-04-13T11:40:21.522Z,0.40
2023-04-13T11:41:21.324Z,0.40
2023-04-13T11:42:21.326Z,0.40
2023-04-13T11:43:21.302Z,0.50
2023-04-13T11:44:21.292Z,0.30
2023-04-13T11:45:21.965Z,0.30
2023-04-13T11:46:21.331Z,0.40
2023-04-13T11:47:21.306Z,0.40
2023-04-13T11:48:21.262Z,0.40
2023-04-13T11:49:21.247Z,0.40
2023-04-13T11:50:21.223Z,0.50
2023-04-13T11:51:21.251Z,0.50
2023-04-13T11:52:21.221Z,0.40
2023-04-13T11:53:21.192Z,0.40
2023-04-13T11:54:21.182Z,0.50
2023-04-13T11:55:23.746Z,0.40
2023-04-13T11:56:21.199Z,0.50
2023-04-13T11:57:21.209Z,0.50
2023-04-13T11:58:21.168Z,0.40
2023-04-13T11:59:21.131Z,0.40
2023-04-13T12:00:21.121Z,0.40
2023-04-13T12:01:26.129Z,0.40
2023-04-13T12:02:23.368Z,0.40
2023-04-13T12:04:21.249Z,0.40
2023-04-13T12:05:21.223Z,0.40
2023-04-13T12:06:21.208Z,0.40
2023-04-13T12:07:21.841Z,0.40
2023-04-13T12:08:21.335Z,0.50
2023-04-13T12:09:23.277Z,0.50
2023-04-13T12:10:24.796Z,0.60
2023-04-13T12:14:38.013Z,0.50
2023-04-13T12:15:38.712Z,0.50
2023-04-13T12:16:35.981Z,0.40
2023-04-13T12:18:26.052Z,0.50
2023-04-13T12:20:21.084Z,0.50
2023-04-13T12:21:21.056Z,0.40
2023-04-13T12:22:20.941Z,0.30
2023-04-13T12:23:22.893Z,0.50
2023-04-13T12:24:20.914Z,0.60
2023-04-13T12:25:20.938Z,0.50
2023-04-13T12:26:59.402Z,0.60
2023-04-13T12:27:21.930Z,1.00
2023-04-13T12:28:20.845Z,0.50
2023-04-13T12:29:20.827Z,0.80
2023-04-13T12:30:20.820Z,1.10
2023-04-13T12:31:20.859Z,1.40
2023-04-13T12:32:20.867Z,1.50
2023-04-13T12:33:20.776Z,0.70
2023-04-13T12:34:20.771Z,1.00
2023-04-13T12:35:20.765Z,1.40
2023-04-13T12:36:20.746Z,0.40
2023-04-13T12:37:20.731Z,0.90
2023-04-13T12:38:20.738Z,0.70
2023-04-13T12:39:20.722Z,0.90
2023-04-13T12:40:20.730Z,0.50
2023-04-13T12:41:20.683Z,2.40
2023-04-13T12:42:20.677Z,1.30
2023-04-13T12:43:20.662Z,0.60
2023-04-13T12:44:20.706Z,0.90
2023-04-13T12:45:20.655Z,1.70
2023-04-13T12:46:20.665Z,1.30
2023-04-13T12:47:20.730Z,1.00
2023-04-13T12:48:20.610Z,0.50
2023-04-13T12:49:20.607Z,0.60
2023-04-13T12:50:20.652Z,0.60
2023-04-13T12:51:20.588Z,0.70
2023-04-13T12:52:20.568Z,1.10
2023-04-13T12:53:20.584Z,0.70
2023-04-13T12:54:20.557Z,0.50
2023-04-13T12:55:20.545Z,0.50
2023-04-13T12:56:20.581Z,0.50
2023-04-13T12:57:20.510Z,2.90
2023-04-13T12:58:20.502Z,7.10
2023-04-13T12:59:20.485Z,3.50
2023-04-13T13:00:20.506Z,0.80
2023-04-13T13:01:20.548Z,0.40
2023-04-13T13:02:21.892Z,0.50
2023-04-13T13:03:20.452Z,0.40
2023-04-13T13:04:20.450Z,0.50
2023-04-13T13:05:20.427Z,0.60
2023-04-13T13:06:20.418Z,0.50
2023-04-13T13:07:20.437Z,0.60
2023-04-13T13:08:20.420Z,0.90
2023-04-13T13:09:20.392Z,0.70
2023-04-13T13:11:20.368Z,0.90
2023-04-13T13:12:20.353Z,0.90
2023-04-13T13:13:20.337Z,1.30
2023-04-13T13:14:20.387Z,0.90
2023-04-13T13:15:20.323Z,0.70
2023-04-13T13:16:20.354Z,0.80
2023-04-13T13:17:20.300Z,2.80
2023-04-13T13:18:20.287Z,0.50
2023-04-13T13:19:20.274Z,0.60
2023-04-13T13:20:20.316Z,1.00
2023-04-13T13:21:20.259Z,0.40
2023-04-13T13:22:20.255Z,0.40
2023-04-13T13:23:20.278Z,0.40
2023-04-13T13:24:20.227Z,0.80
2023-04-13T13:25:20.213Z,0.80